Time;durP1;ratioP1;P1;durP2;ratioP2;P2;SDS_P1;SDS_P2;PMS_P1;PMS_P2;Temp;Humidity;BMP_temperature;BMP_pressure;BME280_temperature;BME280_humidity;BME280_pressure;Samples;Min_cycle;Max_cycle;Signal;HPM_P1;HPM_P2
2023/09/11 00:00:28;;;;;;;4.82;1.50;;;;;;;27.29;100.00;99413.47;7398283;19;20039;-55
2023/09/11 00:02:54;;;;;;;3.40;1.85;;;;;;;25.78;100.00;99415.31;7395612;19;20017;-54
2023/09/11 00:05:20;;;;;;;4.00;1.67;;;;;;;24.13;100.00;99429.97;7394983;19;20014;-54
2023/09/11 00:07:46;;;;;;;1.92;1.20;;;;;;;28.11;100.00;99421.63;7397991;19;20014;-54
2023/09/11 00:10:13;;;;;;;4.18;1.85;;;;;;;28.61;100.00;99423.72;7396006;19;20007;-54
2023/09/11 00:12:39;;;;;;;4.55;1.30;;;;;;;26.63;100.00;99422.75;7395389;19;20457;-54
2023/09/11 00:15:05;;;;;;;7.85;2.08;;;;;;;26.37;100.00;99421.47;7391404;19;20390;-54
2023/09/11 00:17:32;;;;;;;2.85;1.80;;;;;;;28.71;100.00;99422.28;7391088;19;20865;-54
2023/09/11 00:19:58;;;;;;;8.88;2.97;;;;;;;29.69;100.00;99421.63;7390719;19;20018;-54
2023/09/11 00:22:24;;;;;;;2.80;1.63;;;;;;;29.73;100.00;99408.31;7390805;19;20010;-54
2023/09/11 00:24:50;;;;;;;11.70;2.28;;;;;;;30.95;100.00;99419.47;7391325;19;20006;-54
2023/09/11 00:27:16;;;;;;;6.90;2.75;;;;;;;31.38;96.18;99412.66;7391038;19;20074;-55
2023/09/11 00:29:42;;;;;;;3.58;1.67;;;;;;;30.56;99.17;99410.63;7395959;19;20014;-54
2023/09/11 00:32:08;;;;;;;2.70;1.70;;;;;;;30.30;100.00;99411.88;7393295;19;20015;-55
2023/09/11 00:34:34;;;;;;;4.75;1.27;;;;;;;30.02;100.00;99402.22;7393734;19;20021;-54
2023/09/11 00:37:01;;;;;;;2.42;1.38;;;;;;;27.33;100.00;99413.03;7399140;19;20011;-54
2023/09/11 00:39:27;;;;;;;4.03;1.67;;;;;;;23.09;100.00;99422.84;7394127;19;20019;-55
2023/09/11 00:41:53;;;;;;;6.57;2.53;;;;;;;22.41;100.00;99420.13;7394982;19;20043;-55
2023/09/11 00:44:19;;;;;;;3.72;1.73;;;;;;;26.16;100.00;99410.56;7395604;19;20401;-55
2023/09/11 00:46:45;;;;;;;3.05;1.63;;;;;;;21.82;100.00;99413.84;7395562;19;20031;-54
2023/09/11 00:49:11;;;;;;;4.18;1.58;;;;;;;24.71;100.00;99415.03;7393944;19;20408;-54
2023/09/11 00:51:38;;;;;;;2.17;1.27;;;;;;;29.48;100.00;99408.09;7394601;19;20043;-54
2023/09/11 00:54:04;;;;;;;6.32;2.42;;;;;;;24.36;100.00;99410.63;7394581;19;20021;-54
2023/09/11 00:56:30;;;;;;;2.25;1.33;;;;;;;21.84;100.00;99410.44;7393747;19;20006;-54
2023/09/11 00:58:57;;;;;;;3.70;1.42;;;;;;;28.31;100.00;99400.16;7394540;19;20048;-54
2023/09/11 01:01:24;;;;;;;5.25;2.10;;;;;;;31.62;100.00;99398.22;7390894;19;20034;-55
2023/09/11 01:03:50;;;;;;;5.00;1.75;;;;;;;31.62;98.16;99404.69;7393894;19;20459;-54
2023/09/11 01:06:16;;;;;;;5.78;1.80;;;;;;;31.78;96.39;99404.84;7393855;19;20357;-55
2023/09/11 01:08:43;;;;;;;3.53;1.23;;;;;;;33.58;84.11;99401.41;7393240;19;20361;-54
2023/09/11 01:11:09;;;;;;;4.90;1.50;;;;;;;38.97;62.70;99394.31;7392004;19;20021;-54
2023/09/11 01:13:35;;;;;;;4.10;2.53;;;;;;;27.18;100.00;99399.06;7392791;19;20035;-55
2023/09/11 01:16:24;;;;;;;4.43;1.35;;;;;;;25.42;100.00;99401.75;7395436;19;20015;-55
2023/09/11 01:18:51;;;;;;;3.90;1.30;;;;;;;23.62;100.00;99405.59;7392945;19;20018;-54
2023/09/11 01:21:48;;;;;;;6.63;1.23;;;;;;;22.53;100.00;99395.69;7391098;19;20021;-54
2023/09/11 01:24:20;;;;;;;4.43;1.30;;;;;;;21.89;100.00;99401.00;7393194;19;20011;-54
2023/09/11 01:27:16;;;;;;;2.08;1.40;;;;;;;21.57;100.00;99407.13;7391200;19;20018;-54
2023/09/11 01:29:44;;;;;;;6.57;1.55;;;;;;;21.51;100.00;99406.53;7397143;19;20014;-54
2023/09/11 01:32:13;;;;;;;2.13;1.10;;;;;;;21.36;100.00;99405.72;7394586;19;20040;-54
2023/09/11 01:34:39;;;;;;;4.45;0.93;;;;;;;21.12;100.00;99406.94;7398813;19;20014;-54
2023/09/11 01:37:05;;;;;;;9.73;2.13;;;;;;;21.03;100.00;99405.41;7404767;19;20006;-54
2023/09/11 01:39:31;;;;;;;1.75;1.08;;;;;;;21.06;100.00;99403.53;7402892;19;20022;-55
2023/09/11 01:42:04;;;;;;;6.50;1.08;;;;;;;21.04;100.00;99412.59;7400048;19;20015;-55
2023/09/11 01:44:38;;;;;;;0.55;0.50;;;;;;;21.01;100.00;99412.91;7399624;19;20451;-54
2023/09/11 01:47:06;;;;;;;3.22;1.13;;;;;;;20.72;100.00;99415.03;7399034;19;20047;-54
2023/09/11 01:49:33;;;;;;;2.45;1.00;;;;;;;21.00;100.00;99414.25;7399411;19;20408;-54
2023/09/11 01:52:01;;;;;;;1.63;0.73;;;;;;;20.71;100.00;99410.66;7403056;19;20019;-54
2023/09/11 01:54:28;;;;;;;1.58;1.05;;;;;;;20.80;100.00;99417.88;7398095;19;20026;-55
2023/09/11 01:56:54;;;;;;;10.35;0.90;;;;;;;20.75;100.00;99411.06;7400474;19;20013;-54
2023/09/11 01:59:20;;;;;;;1.60;0.65;;;;;;;20.73;100.00;99407.28;7399743;19;20077;-55
2023/09/11 02:01:46;;;;;;;3.35;0.70;;;;;;;20.72;100.00;99406.53;7402803;19;20049;-55
2023/09/11 02:04:12;;;;;;;3.78;1.40;;;;;;;20.75;100.00;99407.47;7399139;19;20384;-55
2023/09/11 02:06:38;;;;;;;2.22;0.98;;;;;;;20.75;100.00;99407.47;7397688;19;20025;-54
2023/09/11 02:09:05;;;;;;;1.30;0.40;;;;;;;20.80;100.00;99407.34;7398142;19;20038;-54
2023/09/11 02:11:31;;;;;;;1.48;0.80;;;;;;;20.74;100.00;99415.22;7399816;19;20007;-55
2023/09/11 02:13:57;;;;;;;8.48;0.63;;;;;;;20.70;100.00;99414.81;7402614;19;20018;-55
2023/09/11 02:16:23;;;;;;;2.90;0.70;;;;;;;20.73;100.00;99416.53;7396972;19;20035;-55
2023/09/11 02:18:49;;;;;;;3.08;0.82;;;;;;;20.71;100.00;99410.66;7399583;19;20020;-54
2023/09/11 02:21:15;;;;;;;5.43;1.75;;;;;;;20.69;100.00;99413.28;7396745;19;20006;-54
2023/09/11 02:23:42;;;;;;;3.03;1.27;;;;;;;20.84;100.00;99413.38;7399131;19;20018;-54
2023/09/11 02:26:08;;;;;;;1.30;1.02;;;;;;;21.37;100.00;99404.41;7402393;19;20018;-54
2023/09/11 02:28:34;;;;;;;4.72;0.77;;;;;;;22.51;100.00;99406.88;7399665;19;20014;-54
2023/09/11 02:31:00;;;;;;;1.73;0.70;;;;;;;34.07;92.75;99404.47;7403644;19;20011;-54
2023/09/11 02:33:26;;;;;;;1.42;0.73;;;;;;;32.16;89.66;99407.00;7397378;19;20022;-55
2023/09/11 02:35:57;;;;;;;2.38;0.47;;;;;;;32.23;83.05;99403.06;7396773;19;20480;-55
2023/09/11 02:38:23;;;;;;;0.70;0.20;;;;;;;31.49;95.40;99407.53;7401307;19;20089;-55
2023/09/11 02:40:49;;;;;;;12.75;1.95;;;;;;;28.53;100.00;99410.28;7397032;19;20007;-55
2023/09/11 02:43:16;;;;;;;2.67;1.40;;;;;;;21.80;100.00;99410.03;7395187;19;20018;-54
2023/09/11 02:45:45;;;;;;;3.92;1.27;;;;;;;21.82;100.00;99408.16;7397396;19;20018;-54
2023/09/11 02:48:12;;;;;;;3.60;1.35;;;;;;;32.55;97.50;99399.03;7397785;19;20018;-54
2023/09/11 02:50:38;;;;;;;1.50;0.20;;;;;;;39.86;60.52;99386.38;7400889;19;20015;-54
2023/09/11 02:53:09;;;;;;;2.55;0.65;;;;;;;36.37;57.58;99388.84;7398238;19;20006;-55
2023/09/11 02:55:39;;;;;;;2.53;1.15;;;;;;;24.01;100.00;99407.63;7396633;19;20027;-54
2023/09/11 02:58:06;;;;;;;1.08;0.28;;;;;;;22.99;100.00;99401.31;7398668;19;20014;-54
2023/09/11 03:00:35;;;;;;;0.90;0.50;;;;;;;22.41;100.00;99403.09;7400302;19;20038;-55
2023/09/11 03:03:03;;;;;;;1.02;0.40;;;;;;;22.14;100.00;99401.94;7398228;19;20014;-55
2023/09/11 03:05:33;;;;;;;2.30;0.47;;;;;;;22.06;100.00;99400.44;7397887;19;20021;-55
2023/09/11 03:08:02;;;;;;;0.77;0.30;;;;;;;36.63;83.13;99378.22;7398146;19;20010;-55
2023/09/11 03:10:29;;;;;;;2.10;0.80;;;;;;;42.38;52.47;99367.47;7397990;19;20047;-54
2023/09/11 03:12:58;;;;;;;3.35;0.50;;;;;;;43.92;46.90;99375.47;7401063;19;20043;-55
2023/09/11 03:15:28;;;;;;;0.88;0.50;;;;;;;41.45;49.70;99369.06;7396023;19;20039;-55
2023/09/11 03:17:56;;;;;;;1.83;0.60;;;;;;;42.36;50.80;99379.16;7397720;19;20022;-55
2023/09/11 03:20:22;;;;;;;0.85;0.40;;;;;;;42.06;47.03;99367.78;7395162;19;20014;-55
2023/09/11 03:22:48;;;;;;;4.63;0.73;;;;;;;34.22;73.46;99372.66;7397698;19;20031;-55
2023/09/11 03:25:14;;;;;;;6.95;1.95;;;;;;;32.40;81.78;99375.84;7399876;19;20024;-55
2023/09/11 03:27:40;;;;;;;2.58;0.82;;;;;;;33.45;87.25;99367.53;7398259;19;20011;-55
2023/09/11 03:30:07;;;;;;;3.65;0.73;;;;;;;33.43;87.75;99365.31;7400521;19;20025;-55
2023/09/11 03:32:33;;;;;;;5.20;0.85;;;;;;;31.87;96.40;99366.47;7398307;19;20066;-55
2023/09/11 03:35:00;;;;;;;1.17;0.70;;;;;;;36.35;72.38;99357.63;7396403;19;20477;-55
2023/09/11 03:37:26;;;;;;;2.38;0.68;;;;;;;34.02;71.23;99360.22;7400710;19;20066;-55
2023/09/11 03:39:53;;;;;;;2.63;0.85;;;;;;;38.98;59.84;99352.88;7394622;19;20011;-55
2023/09/11 03:42:21;;;;;;;1.95;0.73;;;;;;;36.01;59.24;99355.59;7395427;19;20027;-55
2023/09/11 03:44:47;;;;;;;4.35;1.48;;;;;;;33.63;72.10;99356.13;7395229;19;20014;-55
2023/09/11 03:47:13;;;;;;;2.47;1.13;;;;;;;31.33;81.82;99359.16;7394903;19;20049;-55
2023/09/11 03:49:40;;;;;;;3.50;0.88;;;;;;;31.26;95.78;99351.56;7398418;19;20046;-55
2023/09/11 03:52:07;;;;;;;1.00;0.43;;;;;;;25.20;100.00;99363.59;7395609;19;20006;-61
2023/09/11 03:54:33;;;;;;;3.55;1.45;;;;;;;29.46;100.00;99352.69;7394094;19;20015;-82
2023/09/11 03:57:00;;;;;;;1.27;0.82;;;;;;;29.69;100.00;99361.34;7392434;19;20022;-82
2023/09/11 03:59:26;;;;;;;4.30;1.00;;;;;;;32.85;92.61;99357.31;7392160;19;20017;-81
2023/09/11 04:01:54;;;;;;;3.75;1.13;;;;;;;33.33;87.83;99352.53;7395437;19;20484;-81
2023/09/11 04:04:20;;;;;;;3.95;1.00;;;;;;;30.86;97.28;99354.97;7391623;19;20057;-82
2023/09/11 04:06:46;;;;;;;2.00;0.52;;;;;;;32.79;88.51;99359.91;7389563;19;20030;-82
2023/09/11 04:09:12;;;;;;;1.17;0.77;;;;;;;35.94;78.49;99353.84;7392092;19;20034;-81
2023/09/11 04:11:39;;;;;;;0.75;0.25;;;;;;;36.94;65.47;99348.88;7391332;19;20561;-81
2023/09/11 04:14:05;;;;;;;5.35;1.42;;;;;;;37.54;60.48;99350.13;7397618;19;20359;-81
2023/09/11 04:16:31;;;;;;;2.00;1.40;;;;;;;33.02;80.07;99358.19;7391720;19;20049;-81
2023/09/11 04:18:57;;;;;;;3.47;0.63;;;;;;;37.43;55.57;99350.47;7392048;19;20366;-82
2023/09/11 04:21:23;;;;;;;0.85;0.38;;;;;;;37.76;57.24;99352.97;7389784;19;20018;-81
2023/09/11 04:23:49;;;;;;;1.92;0.60;;;;;;;42.61;46.43;99348.69;7391360;19;20012;-82
2023/09/11 04:26:16;;;;;;;2.30;0.70;;;;;;;44.15;41.70;99339.63;7394707;19;20471;-82
2023/09/11 04:28:43;;;;;;;3.63;0.85;;;;;;;26.92;100.00;99363.56;7390585;19;20022;-82
2023/09/11 04:31:09;;;;;;;6.18;1.00;;;;;;;25.95;100.00;99361.78;7390902;19;20035;-82
2023/09/11 04:33:35;;;;;;;2.05;1.52;;;;;;;26.93;100.00;99365.81;7390098;19;20010;-81
2023/09/11 04:36:02;;;;;;;2.72;0.88;;;;;;;24.33;100.00;99369.84;7391158;19;20014;-84
2023/09/11 04:38:28;;;;;;;1.08;0.43;;;;;;;39.30;64.34;99347.88;7385458;19;20006;-83
2023/09/11 04:40:58;;;;;;;0.75;0.60;;;;;;;43.63;44.63;99340.06;7385192;19;20022;-85
2023/09/11 04:43:26;;;;;;;1.92;0.80;;;;;;;38.65;47.76;99350.50;7386053;19;20027;-84
2023/09/11 04:45:53;;;;;;;1.33;0.40;;;;;;;43.95;41.39;99339.50;7389056;19;20085;-84
2023/09/11 04:48:19;;;;;;;0.73;0.32;;;;;;;42.92;43.21;99338.78;7387899;19;20089;-84
2023/09/11 04:50:45;;;;;;;2.00;0.70;;;;;;;44.57;38.29;99323.63;7385689;19;20022;-83
2023/09/11 04:53:12;;;;;;;2.45;0.40;;;;;;;41.82;41.78;99322.81;7390288;19;20035;-83
2023/09/11 04:55:38;;;;;;;1.45;0.70;;;;;;;44.29;36.41;99321.34;7391336;19;20017;-83
2023/09/11 04:58:04;;;;;;;2.80;0.38;;;;;;;46.61;33.20;99321.78;7390768;19;20042;-84
2023/09/11 05:00:31;;;;;;;1.52;0.63;;;;;;;45.03;33.59;99320.72;7394088;19;20481;-84
2023/09/11 05:02:57;;;;;;;2.17;0.68;;;;;;;35.25;43.99;99336.66;7391294;19;20036;-84
2023/09/11 05:05:23;;;;;;;1.05;0.40;;;;;;;42.80;37.61;99329.09;7389287;19;20415;-84
2023/09/11 05:07:50;;;;;;;4.05;1.20;;;;;;;42.41;38.35;99319.16;7391814;19;20010;-84
2023/09/11 05:10:16;;;;;;;2.33;0.80;;;;;;;34.55;60.85;99333.63;7388919;19;20007;-84
2023/09/11 05:12:43;;;;;;;2.72;0.52;;;;;;;44.64;36.37;99319.22;7391103;19;20032;-83
2023/09/11 05:15:10;;;;;;;1.63;0.40;;;;;;;45.49;34.10;99329.53;7391635;19;20029;-83
2023/09/11 05:17:36;;;;;;;1.35;1.08;;;;;;;31.65;54.00;99342.22;7389316;19;20423;-82
2023/09/11 05:20:04;;;;;;;1.60;0.65;;;;;;;28.26;100.00;99352.53;7391653;19;20379;-83
2023/09/11 05:22:30;;;;;;;1.58;0.50;;;;;;;23.72;100.00;99363.84;7389595;19;20006;-83
2023/09/11 05:24:57;;;;;;;4.38;0.70;;;;;;;22.97;100.00;99370.63;7392890;19;20023;-83
2023/09/11 05:27:23;;;;;;;3.42;0.77;;;;;;;21.45;100.00;99374.03;7397854;19;20018;-83
2023/09/11 05:29:49;;;;;;;0.93;0.50;;;;;;;20.83;100.00;99377.16;7396866;19;20743;-83
2023/09/11 05:32:15;;;;;;;1.55;0.77;;;;;;;20.50;100.00;99378.09;7389351;19;20074;-83
2023/09/11 05:34:41;;;;;;;0.77;0.38;;;;;;;20.36;100.00;99377.41;7389850;19;20459;-84
2023/09/11 05:37:07;;;;;;;0.93;0.65;;;;;;;20.33;100.00;99387.03;7391315;19;20070;-83
2023/09/11 05:39:33;;;;;;;0.50;0.30;;;;;;;20.16;100.00;99383.84;7391716;19;20011;-84
2023/09/11 05:41:59;;;;;;;2.78;0.80;;;;;;;20.53;100.00;99391.13;7391046;19;20017;-84
2023/09/11 05:44:26;;;;;;;2.28;0.40;;;;;;;27.76;100.00;99380.47;7389661;19;20022;-82
2023/09/11 05:46:52;;;;;;;2.05;0.98;;;;;;;21.04;100.00;99392.78;7387855;19;20055;-84
2023/09/11 05:49:18;;;;;;;1.85;0.60;;;;;;;22.20;100.00;99391.16;7393711;19;20017;-83
2023/09/11 05:51:44;;;;;;;3.17;0.63;;;;;;;22.38;100.00;99401.38;7391194;19;20024;-84
2023/09/11 05:54:11;;;;;;;4.30;0.57;;;;;;;20.05;100.00;99406.75;7389617;19;20015;-83
2023/09/11 05:56:37;;;;;;;0.52;0.20;;;;;;;19.61;100.00;99409.34;7389389;19;20024;-83
2023/09/11 05:59:03;;;;;;;2.72;0.85;;;;;;;22.90;100.00;99405.50;7390291;19;20019;-84
2023/09/11 06:01:30;;;;;;;0.98;0.73;;;;;;;33.64;80.00;99395.91;7387610;19;20022;-84
2023/09/11 06:03:56;;;;;;;7.30;0.82;;;;;;;36.47;69.55;99395.06;7390574;19;20018;-83
2023/09/11 06:06:22;;;;;;;2.17;0.73;;;;;;;40.31;48.06;99390.25;7388879;19;20018;-84
2023/09/11 06:08:48;;;;;;;2.90;1.23;;;;;;;42.04;43.59;99390.44;7389159;19;20018;-83
2023/09/11 06:11:14;;;;;;;2.25;0.82;;;;;;;43.04;39.73;99387.25;7388505;19;20018;-83
2023/09/11 06:13:41;;;;;;;1.60;0.30;;;;;;;43.81;37.37;99388.59;7388695;19;20581;-83
2023/09/11 06:16:07;;;;;;;0.95;0.73;;;;;;;44.72;35.66;99389.78;7386653;19;20089;-84
2023/09/11 06:18:33;;;;;;;5.88;1.13;;;;;;;44.80;34.80;99387.59;7389371;19;20011;-83
2023/09/11 06:21:00;;;;;;;1.73;0.57;;;;;;;43.54;34.95;99387.66;7393110;19;20022;-83
2023/09/11 06:23:26;;;;;;;4.03;0.35;;;;;;;44.23;34.63;99395.44;7395953;19;20029;-83
2023/09/11 06:25:52;;;;;;;0.93;0.43;;;;;;;32.16;50.80;99407.75;7393976;19;20018;-83
2023/09/11 06:28:18;;;;;;;3.55;1.00;;;;;;;26.15;100.00;99406.22;7397119;19;20018;-83
2023/09/11 06:30:44;;;;;;;3.53;0.98;;;;;;;25.66;100.00;99409.41;7399861;19;20035;-83
2023/09/11 06:33:10;;;;;;;4.80;0.57;;;;;;;22.85;100.00;99414.97;7397761;19;20021;-83
2023/09/11 06:35:36;;;;;;;0.80;0.50;;;;;;;22.65;100.00;99424.47;7395077;19;20035;-83
2023/09/11 06:38:03;;;;;;;1.70;0.65;;;;;;;21.95;100.00;99424.25;7397138;19;20045;-83
2023/09/11 06:40:29;;;;;;;19.60;0.63;;;;;;;21.77;100.00;99423.25;7396388;19;20022;-82
2023/09/11 06:42:55;;;;;;;2.45;0.32;;;;;;;21.70;100.00;99423.22;7396011;19;20080;-83
2023/09/11 06:45:21;;;;;;;1.80;0.40;;;;;;;21.58;100.00;99417.16;7395939;19;20274;-83
2023/09/11 06:47:47;;;;;;;2.28;0.57;;;;;;;35.18;79.46;99401.50;7396466;19;20011;-83
2023/09/11 06:50:14;;;;;;;2.85;1.30;;;;;;;41.07;54.57;99394.72;7398521;19;20014;-82
2023/09/11 06:52:40;;;;;;;4.05;1.48;;;;;;;32.15;79.91;99408.38;7394976;19;20648;-85
2023/09/11 06:55:07;;;;;;;1.75;0.57;;;;;;;41.89;48.46;99397.53;7396193;19;20018;-84
2023/09/11 06:57:34;;;;;;;4.10;0.47;;;;;;;33.85;65.31;99407.03;7397195;19;20010;-84
2023/09/11 07:00:00;;;;;;;2.92;0.40;;;;;;;34.09;66.03;99408.19;7397074;19;20353;-85
2023/09/11 07:02:26;;;;;;;2.83;0.98;;;;;;;40.55;52.01;99396.63;7394892;19;20037;-84
2023/09/11 07:04:52;;;;;;;1.25;0.60;;;;;;;41.58;45.75;99401.41;7396075;19;20108;-86
2023/09/11 07:07:18;;;;;;;3.95;1.00;;;;;;;39.78;42.83;99400.78;7396772;19;20018;-85
2023/09/11 07:09:45;;;;;;;3.40;1.00;;;;;;;39.62;44.17;99405.47;7396451;19;20408;-84
2023/09/11 07:12:11;;;;;;;0.85;0.32;;;;;;;27.26;100.00;99419.66;7394156;19;20065;-84
2023/09/11 07:14:38;;;;;;;0.32;0.32;;;;;;;33.94;70.78;99406.03;7393514;19;20044;-84
2023/09/11 07:17:04;;;;;;;1.20;0.70;;;;;;;32.31;79.81;99403.50;7391283;19;20357;-84
2023/09/11 07:19:31;;;;;;;0.70;0.40;;;;;;;38.59;56.87;99394.78;7396369;19;20022;-83
2023/09/11 07:21:57;;;;;;;1.35;0.52;;;;;;;37.41;61.10;99394.00;7394514;19;20015;-83
2023/09/11 07:24:23;;;;;;;0.73;0.22;;;;;;;35.86;59.42;99392.00;7395944;19;20042;-83
2023/09/11 07:26:49;;;;;;;0.80;0.47;;;;;;;34.45;71.01;99393.91;7391677;19;20353;-82
2023/09/11 07:29:15;;;;;;;5.68;2.13;;;;;;;41.81;48.82;99388.63;7392734;19;20014;-83
2023/09/11 07:31:41;;;;;;;1.60;0.90;;;;;;;35.73;58.53;99399.47;7394460;19;20010;-83
2023/09/11 07:34:07;;;;;;;4.40;0.85;;;;;;;33.94;68.72;99397.34;7392595;19;20038;-83
2023/09/11 07:36:34;;;;;;;1.10;0.50;;;;;;;37.67;55.17;99389.03;7394523;19;20018;-83
2023/09/11 07:39:00;;;;;;;1.50;0.57;;;;;;;38.89;52.87;99385.38;7395281;19;20022;-83
2023/09/11 07:41:26;;;;;;;3.28;0.43;;;;;;;41.63;45.00;99385.41;7391369;19;20030;-83
2023/09/11 07:43:53;;;;;;;2.40;0.35;;;;;;;35.96;54.61;99377.91;7394713;19;20074;-83
2023/09/11 07:46:21;;;;;;;0.10;0.10;;;;;;;34.20;62.17;99377.59;7393402;19;20011;-83
2023/09/11 07:48:51;;;;;;;0.20;0.17;;;;;;;33.29;68.14;99384.81;7391759;19;20018;-82
2023/09/11 07:51:17;;;;;;;0.15;0.10;;;;;;;33.60;67.82;99382.03;7393625;19;20020;-82
2023/09/11 07:53:44;;;;;;;3.58;0.25;;;;;;;37.59;56.64;99383.72;7394028;19;20388;-82
2023/09/11 07:56:10;;;;;;;1.83;0.77;;;;;;;34.84;60.88;99385.56;7390078;19;20018;-82
2023/09/11 07:58:37;;;;;;;2.20;0.30;;;;;;;36.12;57.68;99377.78;7391949;19;20093;-82
2023/09/11 08:01:04;;;;;;;1.38;0.52;;;;;;;41.86;45.99;99378.47;7398881;19;20405;-82
2023/09/11 08:03:34;;;;;;;4.68;0.82;;;;;;;38.19;47.88;99387.75;7394494;19;20458;-82
2023/09/11 08:06:01;;;;;;;1.48;0.63;;;;;;;38.05;50.15;99390.25;7393183;19;20046;-82
2023/09/11 08:08:27;;;;;;;5.43;0.40;;;;;;;39.06;47.92;99393.13;7394258;19;20014;-82
2023/09/11 08:10:53;;;;;;;0.57;0.25;;;;;;;32.24;66.77;99404.56;7398517;19;20014;-82
2023/09/11 08:13:20;;;;;;;1.00;0.40;;;;;;;38.51;56.75;99393.78;7391118;19;20461;-83
2023/09/11 08:15:46;;;;;;;3.17;0.28;;;;;;;40.23;49.97;99395.94;7392824;19;20500;-83
2023/09/11 08:18:12;;;;;;;0.73;0.20;;;;;;;44.32;39.40;99391.09;7393899;19;20030;-82
2023/09/11 08:20:43;;;;;;;0.95;0.80;;;;;;;33.47;54.48;99399.41;7392824;19;20019;-82
2023/09/11 08:23:09;;;;;;;1.00;0.75;;;;;;;31.83;78.11;99406.59;7392000;19;20032;-82
2023/09/11 08:25:35;;;;;;;2.22;0.22;;;;;;;39.12;52.88;99399.09;7394284;19;20334;-82
2023/09/11 08:28:02;;;;;;;0.32;0.10;;;;;;;33.30;65.17;99408.66;7390494;19;20496;-83
2023/09/11 08:30:28;;;;;;;1.13;0.30;;;;;;;32.49;70.63;99407.38;7393733;19;20361;-82
2023/09/11 08:32:55;;;;;;;2.92;0.43;;;;;;;32.07;74.01;99402.94;7390854;19;20304;-82
2023/09/11 08:35:21;;;;;;;1.23;0.32;;;;;;;32.25;74.60;99406.03;7389937;19;20480;-82
2023/09/11 08:37:47;;;;;;;1.35;0.30;;;;;;;30.99;82.01;99403.19;7391227;19;20045;-82
2023/09/11 08:40:13;;;;;;;3.42;0.50;;;;;;;35.13;69.48;99399.84;7393113;19;20500;-82
2023/09/11 08:42:39;;;;;;;0.30;0.10;;;;;;;28.07;100.00;99418.50;7390236;19;20763;-81
2023/09/11 08:45:06;;;;;;;3.50;0.55;;;;;;;24.68;100.00;99416.97;7389974;19;20015;-81
2023/09/11 08:47:34;;;;;;;8.00;1.33;;;;;;;29.34;98.42;99403.56;7390220;19;20394;-81
2023/09/11 08:50:05;;;;;;;0.88;0.20;;;;;;;25.65;100.00;99413.59;7391762;19;20014;-81
2023/09/11 08:52:33;;;;;;;1.27;0.47;;;;;;;24.66;100.00;99416.78;7391025;19;20011;-81
2023/09/11 08:55:03;;;;;;;2.10;0.57;;;;;;;25.04;100.00;99410.72;7391519;19;20039;-82
2023/09/11 08:57:32;;;;;;;0.28;0.28;;;;;;;24.09;100.00;99425.44;7390074;19;20337;-82
2023/09/11 09:00:04;;;;;;;1.45;0.40;;;;;;;30.07;100.00;99417.59;7392378;19;20545;-82
2023/09/11 09:02:35;;;;;;;7.68;1.48;;;;;;;35.52;83.21;99402.94;7389008;19;20010;-82
2023/09/11 09:05:03;;;;;;;2.45;0.43;;;;;;;44.51;45.94;99403.66;7388538;19;20025;-82
2023/09/11 09:07:31;;;;;;;1.25;0.13;;;;;;;36.97;53.07;99404.88;7391400;19;20029;-82
2023/09/11 09:09:58;;;;;;;3.25;0.90;;;;;;;27.34;100.00;99417.41;7394055;19;20022;-81
2023/09/11 09:12:26;;;;;;;0.68;0.10;;;;;;;24.34;100.00;99419.00;7390423;19;20025;-83
2023/09/11 09:14:53;;;;;;;9.40;0.80;;;;;;;24.53;100.00;99416.34;7389677;19;20375;-82
2023/09/11 09:17:19;;;;;;;0.73;0.45;;;;;;;24.36;100.00;99416.31;7390524;19;20371;-83
2023/09/11 09:19:45;;;;;;;1.67;0.32;;;;;;;25.80;100.00;99416.22;7391639;19;20086;-83
2023/09/11 09:22:15;;;;;;;0.98;0.20;;;;;;;37.66;69.52;99405.00;7391295;19;20018;-84
2023/09/11 09:24:49;;;;;;;8.03;0.90;;;;;;;43.87;50.38;99404.06;7390576;19;20022;-84
2023/09/11 09:27:16;;;;;;;1.40;0.70;;;;;;;31.67;85.15;99415.06;7388328;19;20026;-85
2023/09/11 09:29:42;;;;;;;1.33;0.30;;;;;;;24.87;100.00;99424.97;7388121;19;20065;-83
2023/09/11 09:32:09;;;;;;;1.27;0.50;;;;;;;23.27;100.00;99415.22;7391131;19;20046;-83
2023/09/11 09:34:37;;;;;;;0.20;0.20;;;;;;;33.75;86.26;99409.44;7393424;19;20021;-83
2023/09/11 09:37:04;;;;;;;1.35;0.35;;;;;;;34.49;80.77;99408.56;7392286;19;20057;-83
2023/09/11 09:39:33;;;;;;;1.17;0.38;;;;;;;33.94;81.80;99408.19;7390407;19;20010;-83
2023/09/11 09:42:01;;;;;;;1.65;0.60;;;;;;;33.91;80.61;99410.22;7391552;19;20545;-83
2023/09/11 09:44:31;;;;;;;0.20;0.20;;;;;;;37.30;64.25;99412.50;7389258;19;20011;-83
2023/09/11 09:47:16;;;;;;;1.33;0.50;;;;;;;34.30;76.49;99410.66;7388170;19;20094;-83
2023/09/11 09:49:53;;;;;;;0.55;0.20;;;;;;;34.06;78.65;99421.09;7391372;19;20611;-83
2023/09/11 09:52:22;;;;;;;5.82;0.73;;;;;;;43.45;49.55;99406.66;7389888;19;20014;-83
2023/09/11 09:54:51;;;;;;;1.58;0.47;;;;;;;33.42;69.64;99412.88;7395662;19;20363;-83
2023/09/11 09:57:19;;;;;;;0.63;0.40;;;;;;;27.39;100.00;99416.38;7395626;19;20272;-82
2023/09/11 09:59:52;;;;;;;2.35;0.30;;;;;;;25.88;100.00;99419.00;7398797;19;20029;-83
2023/09/11 10:02:33;;;;;;;1.58;0.25;;;;;;;25.30;100.00;99415.72;7395658;19;20032;-82
2023/09/11 10:05:08;;;;;;;0.52;0.20;;;;;;;25.27;100.00;99405.50;7398450;19;20341;-83
2023/09/11 10:07:46;;;;;;;3.33;0.60;;;;;;;25.18;100.00;99411.91;7401356;19;20103;-83
2023/09/11 10:10:24;;;;;;;2.17;0.47;;;;;;;39.15;67.29;99389.00;7400604;19;20018;-83
2023/09/11 10:13:07;;;;;;;0.73;0.22;;;;;;;35.52;74.12;99391.34;7401134;19;20011;-83
2023/09/11 10:15:38;;;;;;;1.42;0.28;;;;;;;34.47;77.09;99396.91;7401015;19;20031;-83
2023/09/11 10:18:06;;;;;;;0.93;0.30;;;;;;;34.45;76.97;99393.91;7396911;19;20363;-83
2023/09/11 10:20:32;;;;;;;0.52;0.10;;;;;;;33.63;79.10;99396.56;7395845;19;20039;-85
2023/09/11 10:23:02;;;;;;;0.50;0.20;;;;;;;33.51;80.06;99402.50;7394639;19;20029;-84
2023/09/11 10:25:33;;;;;;;4.10;0.30;;;;;;;33.44;80.08;99404.31;7394811;19;20401;-84
2023/09/11 10:28:08;;;;;;;0.75;0.30;;;;;;;35.57;73.91;99403.84;7397824;19;20423;-84
2023/09/11 10:30:46;;;;;;;0.63;0.30;;;;;;;41.97;54.16;99394.72;7399700;19;20027;-85
2023/09/11 10:33:20;;;;;;;3.97;0.45;;;;;;;42.06;46.79;99396.34;7397660;19;20040;-85
2023/09/11 10:35:51;;;;;;;0.98;0.20;;;;;;;42.41;49.65;99395.28;7395822;19;20413;-85
2023/09/11 10:38:18;;;;;;;2.30;0.73;;;;;;;38.97;57.61;99405.97;7397585;19;20547;-86
2023/09/11 10:40:44;;;;;;;0.47;0.15;;;;;;;32.84;67.87;99419.31;7398185;19;20006;-86
2023/09/11 10:43:11;;;;;;;5.57;0.30;;;;;;;38.92;52.41;99407.31;7396124;19;20022;-85
2023/09/11 10:45:37;;;;;;;1.55;0.20;;;;;;;34.05;68.50;99408.03;7400864;19;20023;-86
2023/09/11 10:48:04;;;;;;;1.80;0.25;;;;;;;44.00;44.45;99396.78;7396839;19;20010;-86
2023/09/11 10:50:32;;;;;;;0.10;0.10;;;;;;;43.10;43.85;99404.88;7399723;19;20015;-86
2023/09/11 10:52:58;;;;;;;1.90;0.40;;;;;;;41.75;42.44;99403.91;7397667;19;20014;-86
2023/09/11 10:55:24;;;;;;;0.70;0.20;;;;;;;35.66;57.02;99409.31;7394882;19;20038;-86
2023/09/11 10:57:57;;;;;;;0.20;0.10;;;;;;;35.26;58.36;99404.72;7400752;19;20022;-87
2023/09/11 11:00:25;;;;;;;0.57;0.25;;;;;;;35.33;59.07;99400.69;7396939;19;20018;-83
2023/09/11 11:02:52;;;;;;;0.90;0.10;;;;;;;34.61;62.92;99403.34;7394212;19;20081;-83
2023/09/11 11:05:19;;;;;;;0.22;0.22;;;;;;;36.76;56.98;99408.44;7393953;19;20043;-82
2023/09/11 11:07:50;;;;;;;2.28;0.50;;;;;;;34.59;63.89;99401.09;7397380;19;20475;-84
2023/09/11 11:10:17;;;;;;;0.57;0.20;;;;;;;32.26;73.39;99406.78;7396155;19;20031;-83
2023/09/11 11:12:44;;;;;;;1.52;0.47;;;;;;;43.65;46.63;99395.09;7393464;19;20414;-83
2023/09/11 11:15:25;;;;;;;0.98;0.25;;;;;;;46.27;38.56;99389.69;7397695;19;20011;-85
2023/09/11 11:18:09;;;;;;;2.92;0.40;;;;;;;42.40;42.82;99385.06;7393668;19;20021;-84
2023/09/11 11:20:37;;;;;;;1.55;0.40;;;;;;;45.47;38.34;99384.72;7396488;19;20378;-83
2023/09/11 11:23:10;;;;;;;0.60;0.20;;;;;;;44.01;37.74;99391.66;7395426;19;20025;-84
2023/09/11 11:25:41;;;;;;;2.85;0.40;;;;;;;31.76;64.30;99401.88;7392334;19;20023;-84
2023/09/11 11:28:14;;;;;;;1.55;0.38;;;;;;;38.50;45.72;99393.06;7393220;19;20022;-84
2023/09/11 11:30:43;;;;;;;1.98;0.40;;;;;;;41.73;47.79;99391.44;7397214;19;20018;-83